Historique des mesures à Cassis (13260), France
Quotidien Résumé Mars 5, 2018 Unités:  US    Métrique   Métrique/US
« Précédent (Jour)
Suivant (Jour) »
Quotidien Hebdomadaire Mensuel Annuel Période au choix
  Maximum: Minimum: Moyenne:
Température: 32 °F 49.8 °F 51.6 °F
Point de rosée: 32 °F 44.4 °F 45 °F
Humidité: Humidity % 69 % 74 %
Vitesse du vent: WindSpeedKMH mph 0.0 mph 3.2 mph
Rafales: WindSpeedGustKMH mph - -
Vent:- - ESE
Pression: 0 in 29.2 in -
Précipitations: 129.54 in    
Historical Graphs
 
 
Mesures pour : Mars 5, 2018
Heure Temperature Point de rosée Pression Vent Vitesse du vent Rafales Humidité Pluie (par heure) Conditions
32 °F 32 °F 0 in Calm     Humidity % 0 in SoftwareType W/m2
00:12 53.2 °F 46.2 °F 29.4 in ESE 3.5 mph 3.5 mph 77 % 0 in open2300-1.11 W/m2
01:12 52.9 °F 45.5 °F 29.4 in ENE 3.5 mph 3.5 mph 76 % 0 in open2300-1.11 W/m2
02:12 52.5 °F 45.5 °F 29.4 in Calm   3.2 mph 77 % 0 in open2300-1.11 W/m2
03:12 52.3 °F 45.3 °F 29.4 in Calm     77 % 0 in open2300-1.11 W/m2
04:12 52.2 °F 44.4 °F 29.3 in Calm     75 % 0 in open2300-1.11 W/m2
05:12 51.8 °F 44.8 °F 29.3 in East 3.2 mph 3.2 mph 77 % 0 in open2300-1.11 W/m2
06:12 51.1 °F 44.8 °F 29.3 in South 6.1 mph 7.6 mph 79 % 0 in open2300-1.11 W/m2
07:12 51.1 °F 44.4 °F 29.3 in SE 6.8 mph 6.8 mph 78 % 0 in open2300-1.11 W/m2
08:12 51.6 °F 44.8 °F 29.3 in ESE 7.6 mph 10.8 mph 77 % 0 in open2300-1.11 W/m2
09:12 52.7 °F 45.3 °F 29.3 in East 4.3 mph 4.3 mph 76 % 0 in open2300-1.11 W/m2
10:12 54.9 °F 46.2 °F 29.3 in ESE 7.2 mph 7.2 mph 73 % 0 in open2300-1.11 W/m2
11:12 56.8 °F 47.1 °F 29.3 in ESE 7.2 mph 11.1 mph 70 % 0 in open2300-1.11 W/m2
12:12 56.8 °F 46.8 °F 29.2 in SE 3.5 mph 6.4 mph 69 % 0 in open2300-1.11 W/m2
13:12 55.2 °F 45.7 °F 29.2 in East 3.5 mph 9.7 mph 70 % 0 in open2300-1.11 W/m2
14:12 53.2 °F 46.9 °F 29.2 in SE 2.9 mph 2.9 mph 79 % 12.7 in open2300-1.11 W/m2
15:12 52.9 °F 46.2 °F 29.2 in ESE 1.4 mph 1.8 mph 78 % 0 in open2300-1.11 W/m2
16:12 52.7 °F 47.1 °F 29.2 in SE 1.1 mph 1.4 mph 81 % 12.7 in open2300-1.11 W/m2
17:12 52.2 °F 45.9 °F 29.2 in Calm   2.9 mph 79 % 0 in open2300-1.11 W/m2
18:12 50.7 °F 44.8 °F 29.2 in SE 2.9 mph 7.9 mph 80 % 12.7 in open2300-1.11 W/m2
19:12 50.7 °F 45.1 °F 29.2 in ESE 3.2 mph 3.2 mph 81 % 0 in open2300-1.11 W/m2
20:12 51.1 °F 44.8 °F 29.2 in ESE 5.0 mph 7.9 mph 79 % 0 in open2300-1.11 W/m2
21:11 50.2 °F 45.1 °F 29.2 in North 4.3 mph 4.3 mph 83 % 50.8 in open2300-1.11 W/m2
22:12 50.2 °F 45.1 °F 29.2 in Calm   5.5 mph 83 % 25.4 in open2300-1.11 W/m2
23:12 49.8 °F 45.1 °F 29.2 in South 3.2 mph 5.5 mph 84 % 12.7 in open2300-1.11 W/m2
Observations météo à CASSIS
WU-History script by Weather Underground - 1 mb